sensor_id;sensor_type;location;lat;lon;timestamp;P1;durP1;ratioP1;P2;durP2;ratioP2
26989;SDS011;14537;47.788;11.858;2024-03-02T00:00:06;6.45;;;3.88;;
26989;SDS011;14537;47.788;11.858;2024-03-02T00:02:42;8.85;;;4.47;;
26989;SDS011;14537;47.788;11.858;2024-03-02T00:05:09;9.35;;;5.07;;
26989;SDS011;14537;47.788;11.858;2024-03-02T00:07:36;7.13;;;3.60;;
26989;SDS011;14537;47.788;11.858;2024-03-02T00:10:07;13.93;;;4.90;;
26989;SDS011;14537;47.788;11.858;2024-03-02T00:12:37;8.68;;;4.10;;
26989;SDS011;14537;47.788;11.858;2024-03-02T00:17:53;13.40;;;5.05;;
26989;SDS011;14537;47.788;11.858;2024-03-02T00:22:49;11.32;;;4.85;;
26989;SDS011;14537;47.788;11.858;2024-03-02T00:25:15;10.85;;;4.70;;
26989;SDS011;14537;47.788;11.858;2024-03-02T00:27:41;9.90;;;4.68;;
26989;SDS011;14537;47.788;11.858;2024-03-02T00:30:51;13.48;;;5.97;;
26989;SDS011;14537;47.788;11.858;2024-03-02T00:32:56;6.93;;;4.10;;
26989;SDS011;14537;47.788;11.858;2024-03-02T00:35:21;10.07;;;4.97;;
26989;SDS011;14537;47.788;11.858;2024-03-02T00:37:48;8.70;;;4.40;;
26989;SDS011;14537;47.788;11.858;2024-03-02T00:40:14;9.52;;;4.32;;
26989;SDS011;14537;47.788;11.858;2024-03-02T00:42:41;11.32;;;4.78;;
26989;SDS011;14537;47.788;11.858;2024-03-02T00:45:07;9.00;;;4.32;;
26989;SDS011;14537;47.788;11.858;2024-03-02T00:47:37;7.53;;;3.85;;
26989;SDS011;14537;47.788;11.858;2024-03-02T00:50:05;10.05;;;4.30;;
26989;SDS011;14537;47.788;11.858;2024-03-02T00:52:31;7.80;;;4.05;;
26989;SDS011;14537;47.788;11.858;2024-03-02T00:54:58;9.57;;;4.70;;
26989;SDS011;14537;47.788;11.858;2024-03-02T00:57:23;8.30;;;4.32;;
26989;SDS011;14537;47.788;11.858;2024-03-02T00:59:51;9.00;;;4.70;;
26989;SDS011;14537;47.788;11.858;2024-03-02T01:02:17;8.20;;;4.30;;
26989;SDS011;14537;47.788;11.858;2024-03-02T01:04:45;10.77;;;4.55;;
26989;SDS011;14537;47.788;11.858;2024-03-02T01:07:10;10.70;;;4.72;;
26989;SDS011;14537;47.788;11.858;2024-03-02T01:09:36;7.82;;;4.15;;
26989;SDS011;14537;47.788;11.858;2024-03-02T01:12:02;12.60;;;5.18;;
26989;SDS011;14537;47.788;11.858;2024-03-02T01:14:27;9.25;;;3.92;;
26989;SDS011;14537;47.788;11.858;2024-03-02T01:16:53;7.93;;;3.53;;
26989;SDS011;14537;47.788;11.858;2024-03-02T01:19:19;9.82;;;4.63;;
26989;SDS011;14537;47.788;11.858;2024-03-02T01:21:44;8.75;;;4.22;;
26989;SDS011;14537;47.788;11.858;2024-03-02T01:24:10;9.52;;;3.88;;
26989;SDS011;14537;47.788;11.858;2024-03-02T01:26:35;9.50;;;3.92;;
26989;SDS011;14537;47.788;11.858;2024-03-02T01:29:01;10.77;;;4.90;;
26989;SDS011;14537;47.788;11.858;2024-03-02T01:31:26;9.57;;;3.85;;
26989;SDS011;14537;47.788;11.858;2024-03-02T01:33:52;8.98;;;4.22;;
26989;SDS011;14537;47.788;11.858;2024-03-02T01:36:18;10.70;;;4.07;;
26989;SDS011;14537;47.788;11.858;2024-03-02T01:38:43;9.27;;;4.20;;
26989;SDS011;14537;47.788;11.858;2024-03-02T01:41:09;8.60;;;3.70;;
26989;SDS011;14537;47.788;11.858;2024-03-02T01:43:36;8.90;;;4.03;;
26989;SDS011;14537;47.788;11.858;2024-03-02T01:46:02;10.43;;;3.75;;
26989;SDS011;14537;47.788;11.858;2024-03-02T01:48:28;8.35;;;3.55;;
26989;SDS011;14537;47.788;11.858;2024-03-02T01:50:53;9.82;;;3.78;;
26989;SDS011;14537;47.788;11.858;2024-03-02T01:53:19;10.77;;;4.13;;
26989;SDS011;14537;47.788;11.858;2024-03-02T01:55:45;12.15;;;4.03;;
26989;SDS011;14537;47.788;11.858;2024-03-02T01:58:10;10.70;;;4.65;;
26989;SDS011;14537;47.788;11.858;2024-03-02T02:00:36;9.63;;;4.00;;
26989;SDS011;14537;47.788;11.858;2024-03-02T02:03:02;6.18;;;3.25;;
26989;SDS011;14537;47.788;11.858;2024-03-02T02:05:28;8.23;;;4.05;;
26989;SDS011;14537;47.788;11.858;2024-03-02T02:07:53;9.75;;;4.07;;
26989;SDS011;14537;47.788;11.858;2024-03-02T02:10:19;9.18;;;3.67;;
26989;SDS011;14537;47.788;11.858;2024-03-02T02:12:44;10.93;;;4.75;;
26989;SDS011;14537;47.788;11.858;2024-03-02T02:15:23;8.23;;;3.78;;
26989;SDS011;14537;47.788;11.858;2024-03-02T02:17:53;7.22;;;3.42;;
26989;SDS011;14537;47.788;11.858;2024-03-02T02:20:19;9.98;;;4.30;;
26989;SDS011;14537;47.788;11.858;2024-03-02T02:23:03;11.02;;;4.22;;
26989;SDS011;14537;47.788;11.858;2024-03-02T02:25:30;7.63;;;3.90;;
26989;SDS011;14537;47.788;11.858;2024-03-02T02:27:56;10.43;;;4.82;;
26989;SDS011;14537;47.788;11.858;2024-03-02T02:30:26;9.57;;;4.47;;
26989;SDS011;14537;47.788;11.858;2024-03-02T02:32:53;10.45;;;4.40;;
26989;SDS011;14537;47.788;11.858;2024-03-02T02:35:18;14.30;;;5.15;;
26989;SDS011;14537;47.788;11.858;2024-03-02T02:37:45;11.70;;;5.28;;
26989;SDS011;14537;47.788;11.858;2024-03-02T02:40:12;10.05;;;4.93;;
26989;SDS011;14537;47.788;11.858;2024-03-02T02:42:38;12.68;;;5.07;;
26989;SDS011;14537;47.788;11.858;2024-03-02T02:45:04;8.60;;;4.03;;
26989;SDS011;14537;47.788;11.858;2024-03-02T02:47:30;9.35;;;4.65;;
26989;SDS011;14537;47.788;11.858;2024-03-02T02:49:58;10.98;;;5.40;;
26989;SDS011;14537;47.788;11.858;2024-03-02T02:52:24;11.15;;;5.10;;
26989;SDS011;14537;47.788;11.858;2024-03-02T02:54:49;11.73;;;5.05;;
26989;SDS011;14537;47.788;11.858;2024-03-02T02:57:16;13.57;;;5.50;;
26989;SDS011;14537;47.788;11.858;2024-03-02T02:59:41;11.02;;;4.78;;
26989;SDS011;14537;47.788;11.858;2024-03-02T03:02:07;12.25;;;5.20;;
26989;SDS011;14537;47.788;11.858;2024-03-02T03:04:33;11.07;;;5.07;;
26989;SDS011;14537;47.788;11.858;2024-03-02T03:06:58;12.45;;;5.43;;
26989;SDS011;14537;47.788;11.858;2024-03-02T03:09:24;11.50;;;4.97;;
26989;SDS011;14537;47.788;11.858;2024-03-02T03:11:49;13.50;;;5.85;;
26989;SDS011;14537;47.788;11.858;2024-03-02T03:14:15;13.07;;;6.32;;
26989;SDS011;14537;47.788;11.858;2024-03-02T03:16:40;15.30;;;6.18;;
26989;SDS011;14537;47.788;11.858;2024-03-02T03:19:06;13.68;;;6.00;;
26989;SDS011;14537;47.788;11.858;2024-03-02T03:21:31;14.35;;;6.18;;
26989;SDS011;14537;47.788;11.858;2024-03-02T03:23:57;14.15;;;6.25;;
26989;SDS011;14537;47.788;11.858;2024-03-02T03:26:22;15.35;;;6.28;;
26989;SDS011;14537;47.788;11.858;2024-03-02T03:28:48;15.43;;;6.65;;
26989;SDS011;14537;47.788;11.858;2024-03-02T03:31:14;14.52;;;6.45;;
26989;SDS011;14537;47.788;11.858;2024-03-02T03:33:39;15.07;;;6.35;;
26989;SDS011;14537;47.788;11.858;2024-03-02T03:36:05;14.50;;;6.13;;
26989;SDS011;14537;47.788;11.858;2024-03-02T03:38:30;15.23;;;6.40;;
26989;SDS011;14537;47.788;11.858;2024-03-02T03:40:56;19.27;;;7.13;;
26989;SDS011;14537;47.788;11.858;2024-03-02T03:43:22;15.50;;;6.93;;
26989;SDS011;14537;47.788;11.858;2024-03-02T03:45:47;12.70;;;5.75;;
26989;SDS011;14537;47.788;11.858;2024-03-02T03:48:13;16.42;;;6.22;;
26989;SDS011;14537;47.788;11.858;2024-03-02T03:50:38;15.07;;;6.15;;
26989;SDS011;14537;47.788;11.858;2024-03-02T03:53:04;16.95;;;6.85;;
26989;SDS011;14537;47.788;11.858;2024-03-02T03:55:30;16.00;;;6.82;;
26989;SDS011;14537;47.788;11.858;2024-03-02T03:57:56;14.68;;;6.93;;
26989;SDS011;14537;47.788;11.858;2024-03-02T04:00:21;16.55;;;7.05;;
26989;SDS011;14537;47.788;11.858;2024-03-02T04:02:47;16.38;;;6.88;;
26989;SDS011;14537;47.788;11.858;2024-03-02T04:05:12;19.45;;;7.32;;
26989;SDS011;14537;47.788;11.858;2024-03-02T04:07:41;15.80;;;7.15;;
26989;SDS011;14537;47.788;11.858;2024-03-02T04:10:08;18.20;;;7.38;;
26989;SDS011;14537;47.788;11.858;2024-03-02T04:12:35;18.88;;;8.13;;
26989;SDS011;14537;47.788;11.858;2024-03-02T04:15:02;19.55;;;8.80;;
26989;SDS011;14537;47.788;11.858;2024-03-02T04:17:29;19.65;;;9.05;;
26989;SDS011;14537;47.788;11.858;2024-03-02T04:19:56;20.98;;;8.32;;
26989;SDS011;14537;47.788;11.858;2024-03-02T04:22:24;23.42;;;8.15;;
26989;SDS011;14537;47.788;11.858;2024-03-02T04:24:50;24.38;;;8.68;;
26989;SDS011;14537;47.788;11.858;2024-03-02T04:27:15;33.42;;;10.57;;
26989;SDS011;14537;47.788;11.858;2024-03-02T04:29:41;21.02;;;8.80;;
26989;SDS011;14537;47.788;11.858;2024-03-02T04:32:06;24.30;;;9.27;;
26989;SDS011;14537;47.788;11.858;2024-03-02T04:34:32;27.02;;;9.30;;
26989;SDS011;14537;47.788;11.858;2024-03-02T04:36:58;27.70;;;9.88;;
26989;SDS011;14537;47.788;11.858;2024-03-02T04:39:23;28.75;;;10.43;;
26989;SDS011;14537;47.788;11.858;2024-03-02T04:41:49;19.70;;;8.48;;
26989;SDS011;14537;47.788;11.858;2024-03-02T04:44:15;13.10;;;6.65;;
26989;SDS011;14537;47.788;11.858;2024-03-02T04:46:41;10.18;;;4.40;;
26989;SDS011;14537;47.788;11.858;2024-03-02T04:49:06;9.60;;;4.43;;
26989;SDS011;14537;47.788;11.858;2024-03-02T04:51:32;10.82;;;4.15;;
26989;SDS011;14537;47.788;11.858;2024-03-02T04:53:57;15.27;;;5.00;;
26989;SDS011;14537;47.788;11.858;2024-03-02T04:56:23;11.43;;;5.40;;
26989;SDS011;14537;47.788;11.858;2024-03-02T04:58:58;20.23;;;6.88;;
26989;SDS011;14537;47.788;11.858;2024-03-02T05:01:23;21.02;;;6.60;;
26989;SDS011;14537;47.788;11.858;2024-03-02T05:03:49;15.05;;;5.47;;
26989;SDS011;14537;47.788;11.858;2024-03-02T05:06:14;16.58;;;7.03;;
26989;SDS011;14537;47.788;11.858;2024-03-02T05:08:40;16.27;;;6.07;;
26989;SDS011;14537;47.788;11.858;2024-03-02T05:11:06;21.15;;;7.22;;
26989;SDS011;14537;47.788;11.858;2024-03-02T05:13:54;16.63;;;6.95;;
26989;SDS011;14537;47.788;11.858;2024-03-02T05:16:20;18.67;;;7.18;;
26989;SDS011;14537;47.788;11.858;2024-03-02T05:18:46;16.73;;;6.70;;
26989;SDS011;14537;47.788;11.858;2024-03-02T05:21:11;19.33;;;6.88;;
26989;SDS011;14537;47.788;11.858;2024-03-02T05:23:37;17.90;;;6.57;;
26989;SDS011;14537;47.788;11.858;2024-03-02T05:26:03;14.35;;;6.40;;
26989;SDS011;14537;47.788;11.858;2024-03-02T05:28:29;25.02;;;8.13;;
26989;SDS011;14537;47.788;11.858;2024-03-02T05:30:55;20.77;;;7.35;;
26989;SDS011;14537;47.788;11.858;2024-03-02T05:33:21;30.92;;;8.52;;
26989;SDS011;14537;47.788;11.858;2024-03-02T05:35:47;22.45;;;7.18;;
26989;SDS011;14537;47.788;11.858;2024-03-02T05:38:15;21.75;;;7.85;;
26989;SDS011;14537;47.788;11.858;2024-03-02T05:40:40;18.77;;;7.82;;
26989;SDS011;14537;47.788;11.858;2024-03-02T05:43:06;20.55;;;7.72;;
26989;SDS011;14537;47.788;11.858;2024-03-02T05:45:32;24.63;;;8.65;;
26989;SDS011;14537;47.788;11.858;2024-03-02T05:47:57;18.27;;;7.07;;
26989;SDS011;14537;47.788;11.858;2024-03-02T05:50:23;22.77;;;7.68;;
26989;SDS011;14537;47.788;11.858;2024-03-02T05:52:48;18.23;;;6.68;;
26989;SDS011;14537;47.788;11.858;2024-03-02T05:55:14;14.65;;;5.55;;
26989;SDS011;14537;47.788;11.858;2024-03-02T05:57:40;15.88;;;6.45;;
26989;SDS011;14537;47.788;11.858;2024-03-02T06:00:05;18.23;;;6.88;;
26989;SDS011;14537;47.788;11.858;2024-03-02T06:02:33;13.95;;;6.60;;
26989;SDS011;14537;47.788;11.858;2024-03-02T06:05:00;17.45;;;6.38;;
26989;SDS011;14537;47.788;11.858;2024-03-02T06:07:25;27.40;;;8.48;;
26989;SDS011;14537;47.788;11.858;2024-03-02T06:09:51;20.20;;;7.80;;
26989;SDS011;14537;47.788;11.858;2024-03-02T06:12:17;18.20;;;6.70;;
26989;SDS011;14537;47.788;11.858;2024-03-02T06:14:44;18.45;;;7.05;;
26989;SDS011;14537;47.788;11.858;2024-03-02T06:17:09;15.07;;;5.43;;
26989;SDS011;14537;47.788;11.858;2024-03-02T06:19:35;16.20;;;5.72;;
26989;SDS011;14537;47.788;11.858;2024-03-02T06:22:01;14.52;;;5.68;;
26989;SDS011;14537;47.788;11.858;2024-03-02T06:24:26;16.27;;;5.57;;
26989;SDS011;14537;47.788;11.858;2024-03-02T06:26:52;11.68;;;5.00;;
26989;SDS011;14537;47.788;11.858;2024-03-02T06:29:17;14.00;;;5.40;;
26989;SDS011;14537;47.788;11.858;2024-03-02T06:31:43;13.27;;;4.78;;
26989;SDS011;14537;47.788;11.858;2024-03-02T06:34:08;19.60;;;6.05;;
26989;SDS011;14537;47.788;11.858;2024-03-02T06:36:34;15.18;;;5.47;;
26989;SDS011;14537;47.788;11.858;2024-03-02T06:38:59;13.02;;;4.70;;
26989;SDS011;14537;47.788;11.858;2024-03-02T06:41:25;8.85;;;4.55;;
26989;SDS011;14537;47.788;11.858;2024-03-02T06:43:51;17.58;;;6.18;;
26989;SDS011;14537;47.788;11.858;2024-03-02T06:46:24;15.07;;;6.63;;
26989;SDS011;14537;47.788;11.858;2024-03-02T06:48:50;9.65;;;4.05;;
26989;SDS011;14537;47.788;11.858;2024-03-02T06:51:16;13.75;;;4.80;;
26989;SDS011;14537;47.788;11.858;2024-03-02T06:53:41;9.90;;;5.10;;
26989;SDS011;14537;47.788;11.858;2024-03-02T06:56:07;14.65;;;5.68;;
26989;SDS011;14537;47.788;11.858;2024-03-02T06:58:36;9.75;;;4.72;;
26989;SDS011;14537;47.788;11.858;2024-03-02T07:01:01;10.95;;;4.80;;
26989;SDS011;14537;47.788;11.858;2024-03-02T07:03:27;13.63;;;6.10;;
26989;SDS011;14537;47.788;11.858;2024-03-02T07:05:52;13.13;;;6.20;;
26989;SDS011;14537;47.788;11.858;2024-03-02T07:08:18;15.38;;;6.43;;
26989;SDS011;14537;47.788;11.858;2024-03-02T07:10:44;14.82;;;5.68;;
26989;SDS011;14537;47.788;11.858;2024-03-02T07:13:09;14.85;;;5.57;;
26989;SDS011;14537;47.788;11.858;2024-03-02T07:15:35;13.80;;;5.68;;
26989;SDS011;14537;47.788;11.858;2024-03-02T07:18:19;11.05;;;5.32;;
26989;SDS011;14537;47.788;11.858;2024-03-02T07:20:44;11.90;;;5.78;;
26989;SDS011;14537;47.788;11.858;2024-03-02T07:23:10;9.40;;;5.22;;
26989;SDS011;14537;47.788;11.858;2024-03-02T07:25:35;13.23;;;5.40;;
26989;SDS011;14537;47.788;11.858;2024-03-02T07:28:01;11.60;;;5.82;;
26989;SDS011;14537;47.788;11.858;2024-03-02T07:30:27;11.38;;;5.45;;
26989;SDS011;14537;47.788;11.858;2024-03-02T07:32:53;12.60;;;5.47;;
26989;SDS011;14537;47.788;11.858;2024-03-02T07:35:19;10.95;;;5.00;;
26989;SDS011;14537;47.788;11.858;2024-03-02T07:37:44;10.45;;;4.85;;
26989;SDS011;14537;47.788;11.858;2024-03-02T07:40:10;12.27;;;4.93;;
26989;SDS011;14537;47.788;11.858;2024-03-02T07:42:37;10.50;;;5.30;;
26989;SDS011;14537;47.788;11.858;2024-03-02T07:45:04;12.52;;;5.40;;
26989;SDS011;14537;47.788;11.858;2024-03-02T07:47:30;9.77;;;4.53;;
26989;SDS011;14537;47.788;11.858;2024-03-02T07:49:56;8.32;;;4.38;;
26989;SDS011;14537;47.788;11.858;2024-03-02T07:52:21;11.30;;;5.03;;
26989;SDS011;14537;47.788;11.858;2024-03-02T07:54:47;11.25;;;5.15;;
26989;SDS011;14537;47.788;11.858;2024-03-02T07:57:13;11.02;;;4.72;;
26989;SDS011;14537;47.788;11.858;2024-03-02T07:59:38;14.60;;;5.20;;
26989;SDS011;14537;47.788;11.858;2024-03-02T08:02:04;11.27;;;4.93;;
26989;SDS011;14537;47.788;11.858;2024-03-02T08:04:29;15.90;;;5.85;;
26989;SDS011;14537;47.788;11.858;2024-03-02T08:06:55;11.95;;;5.25;;
26989;SDS011;14537;47.788;11.858;2024-03-02T08:09:21;12.13;;;4.88;;
26989;SDS011;14537;47.788;11.858;2024-03-02T08:11:46;9.25;;;4.30;;
26989;SDS011;14537;47.788;11.858;2024-03-02T08:14:12;10.13;;;4.80;;
26989;SDS011;14537;47.788;11.858;2024-03-02T08:16:37;10.40;;;5.10;;
26989;SDS011;14537;47.788;11.858;2024-03-02T08:19:03;16.48;;;5.97;;
26989;SDS011;14537;47.788;11.858;2024-03-02T08:21:29;12.38;;;5.55;;
26989;SDS011;14537;47.788;11.858;2024-03-02T08:24:00;14.60;;;6.28;;
26989;SDS011;14537;47.788;11.858;2024-03-02T08:26:27;18.67;;;6.78;;
26989;SDS011;14537;47.788;11.858;2024-03-02T08:28:54;18.27;;;7.60;;
26989;SDS011;14537;47.788;11.858;2024-03-02T08:31:20;15.38;;;6.50;;
26989;SDS011;14537;47.788;11.858;2024-03-02T08:33:46;19.70;;;7.72;;
26989;SDS011;14537;47.788;11.858;2024-03-02T08:36:11;14.90;;;7.13;;
26989;SDS011;14537;47.788;11.858;2024-03-02T08:38:37;15.20;;;6.97;;
26989;SDS011;14537;47.788;11.858;2024-03-02T08:41:03;15.75;;;6.63;;
26989;SDS011;14537;47.788;11.858;2024-03-02T08:43:29;18.15;;;7.20;;
26989;SDS011;14537;47.788;11.858;2024-03-02T08:45:54;13.30;;;6.10;;
26989;SDS011;14537;47.788;11.858;2024-03-02T08:48:20;18.30;;;7.47;;
26989;SDS011;14537;47.788;11.858;2024-03-02T08:50:46;15.85;;;7.00;;
26989;SDS011;14537;47.788;11.858;2024-03-02T08:53:11;15.43;;;7.15;;
26989;SDS011;14537;47.788;11.858;2024-03-02T08:55:37;16.92;;;7.47;;
26989;SDS011;14537;47.788;11.858;2024-03-02T08:58:03;17.35;;;7.45;;
26989;SDS011;14537;47.788;11.858;2024-03-02T09:00:28;17.38;;;7.22;;
26989;SDS011;14537;47.788;11.858;2024-03-02T09:02:54;19.02;;;7.47;;
26989;SDS011;14537;47.788;11.858;2024-03-02T09:05:20;20.33;;;7.25;;
26989;SDS011;14537;47.788;11.858;2024-03-02T09:07:45;19.10;;;8.13;;
26989;SDS011;14537;47.788;11.858;2024-03-02T09:10:11;16.50;;;7.35;;
26989;SDS011;14537;47.788;11.858;2024-03-02T09:12:37;17.08;;;7.18;;
26989;SDS011;14537;47.788;11.858;2024-03-02T09:15:03;22.98;;;8.35;;
26989;SDS011;14537;47.788;11.858;2024-03-02T09:17:29;19.23;;;8.43;;
26989;SDS011;14537;47.788;11.858;2024-03-02T09:19:55;18.88;;;8.68;;
26989;SDS011;14537;47.788;11.858;2024-03-02T09:22:21;18.20;;;8.38;;
26989;SDS011;14537;47.788;11.858;2024-03-02T09:24:46;20.42;;;8.43;;
26989;SDS011;14537;47.788;11.858;2024-03-02T09:27:12;22.58;;;8.70;;
26989;SDS011;14537;47.788;11.858;2024-03-02T09:29:38;18.83;;;9.02;;
26989;SDS011;14537;47.788;11.858;2024-03-02T09:32:04;23.77;;;10.20;;
26989;SDS011;14537;47.788;11.858;2024-03-02T09:34:30;24.60;;;9.85;;
26989;SDS011;14537;47.788;11.858;2024-03-02T09:36:57;20.42;;;9.57;;
26989;SDS011;14537;47.788;11.858;2024-03-02T09:39:23;19.10;;;9.50;;
26989;SDS011;14537;47.788;11.858;2024-03-02T09:41:50;19.15;;;9.18;;
26989;SDS011;14537;47.788;11.858;2024-03-02T09:44:16;19.25;;;8.85;;
26989;SDS011;14537;47.788;11.858;2024-03-02T09:46:42;28.30;;;10.98;;
26989;SDS011;14537;47.788;11.858;2024-03-02T09:49:09;26.83;;;11.18;;
26989;SDS011;14537;47.788;11.858;2024-03-02T09:51:37;24.88;;;9.93;;
26989;SDS011;14537;47.788;11.858;2024-03-02T09:54:04;20.25;;;8.85;;
26989;SDS011;14537;47.788;11.858;2024-03-02T09:56:32;23.55;;;9.02;;
26989;SDS011;14537;47.788;11.858;2024-03-02T09:58:57;25.05;;;10.40;;
26989;SDS011;14537;47.788;11.858;2024-03-02T10:01:24;19.70;;;9.85;;
26989;SDS011;14537;47.788;11.858;2024-03-02T10:03:49;23.02;;;10.25;;
26989;SDS011;14537;47.788;11.858;2024-03-02T10:06:22;20.35;;;9.50;;
26989;SDS011;14537;47.788;11.858;2024-03-02T10:08:52;24.92;;;9.57;;
26989;SDS011;14537;47.788;11.858;2024-03-02T10:11:26;19.60;;;9.10;;
26989;SDS011;14537;47.788;11.858;2024-03-02T10:14:26;23.50;;;10.57;;
26989;SDS011;14537;47.788;11.858;2024-03-02T10:16:45;22.80;;;10.18;;
26989;SDS011;14537;47.788;11.858;2024-03-02T10:19:21;21.17;;;9.70;;
26989;SDS011;14537;47.788;11.858;2024-03-02T10:24:18;24.33;;;9.90;;
26989;SDS011;14537;47.788;11.858;2024-03-02T10:26:44;23.80;;;10.25;;
26989;SDS011;14537;47.788;11.858;2024-03-02T10:29:10;22.55;;;10.10;;
26989;SDS011;14537;47.788;11.858;2024-03-02T10:31:37;21.15;;;10.45;;
26989;SDS011;14537;47.788;11.858;2024-03-02T10:34:03;30.13;;;11.00;;
26989;SDS011;14537;47.788;11.858;2024-03-02T10:36:29;24.33;;;10.32;;
26989;SDS011;14537;47.788;11.858;2024-03-02T10:38:58;24.10;;;9.35;;
26989;SDS011;14537;47.788;11.858;2024-03-02T10:41:24;23.10;;;10.05;;
26989;SDS011;14537;47.788;11.858;2024-03-02T10:43:54;19.83;;;9.27;;
26989;SDS011;14537;47.788;11.858;2024-03-02T10:46:27;21.33;;;9.07;;
26989;SDS011;14537;47.788;11.858;2024-03-02T10:48:57;21.45;;;8.90;;
26989;SDS011;14537;47.788;11.858;2024-03-02T10:51:24;21.77;;;8.95;;
26989;SDS011;14537;47.788;11.858;2024-03-02T10:53:56;17.65;;;7.75;;
26989;SDS011;14537;47.788;11.858;2024-03-02T10:56:28;17.85;;;7.85;;
26989;SDS011;14537;47.788;11.858;2024-03-02T10:59:06;18.15;;;7.35;;
26989;SDS011;14537;47.788;11.858;2024-03-02T11:01:36;17.60;;;7.75;;
26989;SDS011;14537;47.788;11.858;2024-03-02T11:04:04;17.02;;;7.50;;
26989;SDS011;14537;47.788;11.858;2024-03-02T11:09:03;15.85;;;7.05;;
26989;SDS011;14537;47.788;11.858;2024-03-02T11:11:34;20.92;;;7.82;;
26989;SDS011;14537;47.788;11.858;2024-03-02T11:14:04;16.38;;;7.38;;
26989;SDS011;14537;47.788;11.858;2024-03-02T11:16:37;21.35;;;7.90;;
26989;SDS011;14537;47.788;11.858;2024-03-02T11:19:08;21.63;;;8.30;;
26989;SDS011;14537;47.788;11.858;2024-03-02T11:21:38;17.88;;;7.78;;
26989;SDS011;14537;47.788;11.858;2024-03-02T11:26:52;20.90;;;7.78;;
26989;SDS011;14537;47.788;11.858;2024-03-02T11:32:02;18.73;;;8.38;;
26989;SDS011;14537;47.788;11.858;2024-03-02T11:34:35;21.60;;;8.60;;
26989;SDS011;14537;47.788;11.858;2024-03-02T11:37:01;20.25;;;8.13;;
26989;SDS011;14537;47.788;11.858;2024-03-02T11:39:28;16.85;;;8.43;;
26989;SDS011;14537;47.788;11.858;2024-03-02T11:41:54;18.40;;;8.38;;
26989;SDS011;14537;47.788;11.858;2024-03-02T11:44:20;16.65;;;7.10;;
26989;SDS011;14537;47.788;11.858;2024-03-02T11:46:48;19.50;;;8.32;;
26989;SDS011;14537;47.788;11.858;2024-03-02T11:49:28;20.02;;;8.02;;
26989;SDS011;14537;47.788;11.858;2024-03-02T11:52:09;15.75;;;7.70;;
26989;SDS011;14537;47.788;11.858;2024-03-02T11:54:40;13.00;;;6.78;;
26989;SDS011;14537;47.788;11.858;2024-03-02T11:57:11;18.60;;;7.88;;
26989;SDS011;14537;47.788;11.858;2024-03-02T11:59:42;18.35;;;8.00;;
26989;SDS011;14537;47.788;11.858;2024-03-02T12:02:14;15.68;;;7.65;;
26989;SDS011;14537;47.788;11.858;2024-03-02T12:04:42;15.60;;;6.63;;
26989;SDS011;14537;47.788;11.858;2024-03-02T12:07:08;17.30;;;7.60;;
26989;SDS011;14537;47.788;11.858;2024-03-02T12:09:34;18.17;;;7.20;;
26989;SDS011;14537;47.788;11.858;2024-03-02T12:12:04;16.08;;;7.78;;
26989;SDS011;14537;47.788;11.858;2024-03-02T12:14:37;21.88;;;7.63;;
26989;SDS011;14537;47.788;11.858;2024-03-02T12:17:03;20.48;;;8.73;;
26989;SDS011;14537;47.788;11.858;2024-03-02T12:19:30;19.67;;;8.15;;
26989;SDS011;14537;47.788;11.858;2024-03-02T12:21:57;16.63;;;8.20;;
26989;SDS011;14537;47.788;11.858;2024-03-02T12:24:24;20.38;;;8.15;;
26989;SDS011;14537;47.788;11.858;2024-03-02T12:26:51;18.75;;;8.38;;
26989;SDS011;14537;47.788;11.858;2024-03-02T12:29:19;19.10;;;8.65;;
26989;SDS011;14537;47.788;11.858;2024-03-02T12:31:47;19.85;;;9.00;;
26989;SDS011;14537;47.788;11.858;2024-03-02T12:34:14;20.40;;;9.07;;
26989;SDS011;14537;47.788;11.858;2024-03-02T12:36:41;17.95;;;8.52;;
26989;SDS011;14537;47.788;11.858;2024-03-02T12:39:10;20.15;;;9.13;;
26989;SDS011;14537;47.788;11.858;2024-03-02T12:41:36;26.05;;;10.43;;
26989;SDS011;14537;47.788;11.858;2024-03-02T12:44:02;30.20;;;10.07;;
26989;SDS011;14537;47.788;11.858;2024-03-02T12:46:28;24.05;;;9.65;;
26989;SDS011;14537;47.788;11.858;2024-03-02T12:48:54;21.83;;;9.48;;
26989;SDS011;14537;47.788;11.858;2024-03-02T12:51:20;19.50;;;9.70;;
26989;SDS011;14537;47.788;11.858;2024-03-02T12:53:46;21.60;;;9.82;;
26989;SDS011;14537;47.788;11.858;2024-03-02T12:56:19;23.13;;;9.50;;
26989;SDS011;14537;47.788;11.858;2024-03-02T12:58:45;22.40;;;9.70;;
26989;SDS011;14537;47.788;11.858;2024-03-02T13:01:10;21.45;;;10.57;;
26989;SDS011;14537;47.788;11.858;2024-03-02T13:03:39;21.40;;;9.57;;
26989;SDS011;14537;47.788;11.858;2024-03-02T13:06:07;21.55;;;9.82;;
26989;SDS011;14537;47.788;11.858;2024-03-02T13:08:33;23.90;;;9.10;;
26989;SDS011;14537;47.788;11.858;2024-03-02T13:11:00;22.67;;;10.77;;
26989;SDS011;14537;47.788;11.858;2024-03-02T13:13:26;21.48;;;9.73;;
26989;SDS011;14537;47.788;11.858;2024-03-02T13:15:54;23.65;;;10.63;;
26989;SDS011;14537;47.788;11.858;2024-03-02T13:18:21;20.88;;;9.68;;
26989;SDS011;14537;47.788;11.858;2024-03-02T13:20:47;24.17;;;9.65;;
26989;SDS011;14537;47.788;11.858;2024-03-02T13:23:12;18.55;;;8.85;;
26989;SDS011;14537;47.788;11.858;2024-03-02T13:25:39;21.75;;;9.65;;
26989;SDS011;14537;47.788;11.858;2024-03-02T13:28:05;23.38;;;9.68;;
26989;SDS011;14537;47.788;11.858;2024-03-02T13:30:31;21.67;;;10.05;;
26989;SDS011;14537;47.788;11.858;2024-03-02T13:32:57;19.65;;;8.95;;
26989;SDS011;14537;47.788;11.858;2024-03-02T13:35:23;18.00;;;8.85;;
26989;SDS011;14537;47.788;11.858;2024-03-02T13:37:49;20.15;;;9.10;;
26989;SDS011;14537;47.788;11.858;2024-03-02T13:40:15;19.40;;;8.80;;
26989;SDS011;14537;47.788;11.858;2024-03-02T13:45:13;23.58;;;8.48;;
26989;SDS011;14537;47.788;11.858;2024-03-02T13:47:39;16.45;;;7.78;;
26989;SDS011;14537;47.788;11.858;2024-03-02T13:50:04;21.90;;;9.65;;
26989;SDS011;14537;47.788;11.858;2024-03-02T13:52:32;19.95;;;7.85;;
26989;SDS011;14537;47.788;11.858;2024-03-02T13:54:58;19.00;;;8.60;;
26989;SDS011;14537;47.788;11.858;2024-03-02T13:57:23;20.63;;;8.95;;
26989;SDS011;14537;47.788;11.858;2024-03-02T13:59:49;20.30;;;8.05;;
26989;SDS011;14537;47.788;11.858;2024-03-02T14:02:16;17.00;;;8.32;;
26989;SDS011;14537;47.788;11.858;2024-03-02T14:04:42;17.13;;;8.63;;
26989;SDS011;14537;47.788;11.858;2024-03-02T14:07:07;16.13;;;8.40;;
26989;SDS011;14537;47.788;11.858;2024-03-02T14:09:33;19.65;;;8.55;;
26989;SDS011;14537;47.788;11.858;2024-03-02T14:11:59;20.05;;;9.13;;
26989;SDS011;14537;47.788;11.858;2024-03-02T14:14:25;18.20;;;8.23;;
26989;SDS011;14537;47.788;11.858;2024-03-02T14:16:52;13.40;;;7.07;;
26989;SDS011;14537;47.788;11.858;2024-03-02T14:19:19;20.33;;;7.88;;
26989;SDS011;14537;47.788;11.858;2024-03-02T14:21:46;15.75;;;8.07;;
26989;SDS011;14537;47.788;11.858;2024-03-02T14:24:12;19.05;;;7.63;;
26989;SDS011;14537;47.788;11.858;2024-03-02T14:26:38;15.13;;;7.65;;
26989;SDS011;14537;47.788;11.858;2024-03-02T14:29:04;11.88;;;5.82;;
26989;SDS011;14537;47.788;11.858;2024-03-02T14:31:30;13.57;;;6.53;;
26989;SDS011;14537;47.788;11.858;2024-03-02T14:33:56;10.05;;;5.13;;
26989;SDS011;14537;47.788;11.858;2024-03-02T14:36:22;12.20;;;5.22;;
26989;SDS011;14537;47.788;11.858;2024-03-02T14:38:48;9.48;;;4.90;;